sensor_id;sensor_type;location;lat;lon;timestamp;pressure;altitude;pressure_sealevel;temperature;humidity
58072;BME280;60383;46.626;18.866;2022-09-13T00:01:17;100315.94;;;14.97;63.96
58072;BME280;60383;46.626;18.866;2022-09-13T00:03:42;100316.56;;;14.84;64.38
58072;BME280;60383;46.626;18.866;2022-09-13T00:06:10;100317.25;;;14.87;64.07
58072;BME280;60383;46.626;18.866;2022-09-13T00:08:36;100310.22;;;14.84;64.12
58072;BME280;60383;46.626;18.866;2022-09-13T00:11:02;100317.28;;;14.63;64.48
58072;BME280;60383;46.626;18.866;2022-09-13T00:13:27;100322.78;;;14.63;64.64
58072;BME280;60383;46.626;18.866;2022-09-13T00:15:53;100314.84;;;14.68;64.21
58072;BME280;60383;46.626;18.866;2022-09-13T00:18:18;100326.66;;;14.54;64.63
58072;BME280;60383;46.626;18.866;2022-09-13T00:20:44;100327.25;;;14.64;64.74
58072;BME280;60383;46.626;18.866;2022-09-13T00:23:10;100337.59;;;14.62;64.19
58072;BME280;60383;46.626;18.866;2022-09-13T00:25:36;100339.03;;;14.58;64.26
58072;BME280;60383;46.626;18.866;2022-09-13T00:28:02;100326.91;;;14.67;64.07
58072;BME280;60383;46.626;18.866;2022-09-13T00:30:28;100331.19;;;14.70;63.79
58072;BME280;60383;46.626;18.866;2022-09-13T00:32:53;100323.69;;;14.56;64.08
58072;BME280;60383;46.626;18.866;2022-09-13T00:35:19;100324.19;;;14.59;64.33
58072;BME280;60383;46.626;18.866;2022-09-13T00:37:45;100326.16;;;14.50;64.21
58072;BME280;60383;46.626;18.866;2022-09-13T00:40:10;100327.59;;;14.46;64.45
58072;BME280;60383;46.626;18.866;2022-09-13T00:42:36;100331.75;;;14.42;64.61
58072;BME280;60383;46.626;18.866;2022-09-13T00:47:56;100334.50;;;14.19;65.32
58072;BME280;60383;46.626;18.866;2022-09-13T00:53:22;100317.81;;;14.20;65.65
58072;BME280;60383;46.626;18.866;2022-09-13T00:56:05;100317.13;;;14.18;65.71
58072;BME280;60383;46.626;18.866;2022-09-13T00:58:38;100313.94;;;14.30;65.47
58072;BME280;60383;46.626;18.866;2022-09-13T01:01:08;100323.63;;;14.26;65.61
58072;BME280;60383;46.626;18.866;2022-09-13T01:03:36;100313.47;;;14.26;65.57
58072;BME280;60383;46.626;18.866;2022-09-13T01:06:09;100320.19;;;14.24;65.40
58072;BME280;60383;46.626;18.866;2022-09-13T01:08:37;100315.47;;;14.32;65.23
58072;BME280;60383;46.626;18.866;2022-09-13T01:11:05;100318.47;;;14.22;65.61
58072;BME280;60383;46.626;18.866;2022-09-13T01:13:37;100323.34;;;14.20;65.13
58072;BME280;60383;46.626;18.866;2022-09-13T01:16:04;100325.69;;;14.00;65.79
58072;BME280;60383;46.626;18.866;2022-09-13T01:18:29;100320.88;;;14.26;65.15
58072;BME280;60383;46.626;18.866;2022-09-13T01:32:10;100309.31;;;14.07;65.58
58072;BME280;60383;46.626;18.866;2022-09-13T01:45:49;100319.41;;;13.92;66.25
58072;BME280;60383;46.626;18.866;2022-09-13T01:56:16;100310.13;;;13.61;68.92
58072;BME280;60383;46.626;18.866;2022-09-13T01:58:52;100309.03;;;13.94;68.49
58072;BME280;60383;46.626;18.866;2022-09-13T02:01:41;100303.63;;;14.09;66.94
58072;BME280;60383;46.626;18.866;2022-09-13T02:04:17;100303.25;;;14.12;65.78
58072;BME280;60383;46.626;18.866;2022-09-13T02:07:15;100302.00;;;14.14;65.96
58072;BME280;60383;46.626;18.866;2022-09-13T02:09:47;100302.16;;;13.98;66.39
58072;BME280;60383;46.626;18.866;2022-09-13T02:12:17;100303.53;;;13.94;66.45
58072;BME280;60383;46.626;18.866;2022-09-13T02:14:55;100287.69;;;13.72;66.77
58072;BME280;60383;46.626;18.866;2022-09-13T02:17:25;100293.50;;;13.78;66.76
58072;BME280;60383;46.626;18.866;2022-09-13T02:19:56;100289.72;;;13.79;66.69
58072;BME280;60383;46.626;18.866;2022-09-13T02:22:30;100295.03;;;13.80;66.39
58072;BME280;60383;46.626;18.866;2022-09-13T02:25:02;100292.88;;;13.67;66.66
58072;BME280;60383;46.626;18.866;2022-09-13T02:27:32;100284.47;;;13.61;67.06
58072;BME280;60383;46.626;18.866;2022-09-13T02:30:02;100293.84;;;13.51;67.35
58072;BME280;60383;46.626;18.866;2022-09-13T02:32:30;100293.28;;;13.56;67.59
58072;BME280;60383;46.626;18.866;2022-09-13T02:35:04;100296.91;;;13.56;67.88
58072;BME280;60383;46.626;18.866;2022-09-13T02:37:33;100293.28;;;13.56;67.78
58072;BME280;60383;46.626;18.866;2022-09-13T02:40:27;100295.38;;;13.54;67.47
58072;BME280;60383;46.626;18.866;2022-09-13T02:42:59;100292.09;;;13.58;67.34
58072;BME280;60383;46.626;18.866;2022-09-13T02:45:31;100291.69;;;13.62;67.00
58072;BME280;60383;46.626;18.866;2022-09-13T02:48:03;100297.97;;;13.47;67.27
58072;BME280;60383;46.626;18.866;2022-09-13T02:53:25;100297.31;;;13.45;67.34
58072;BME280;60383;46.626;18.866;2022-09-13T02:59:12;100302.13;;;13.35;67.77
58072;BME280;60383;46.626;18.866;2022-09-13T03:01:39;100300.28;;;13.27;67.75
58072;BME280;60383;46.626;18.866;2022-09-13T03:04:06;100298.56;;;13.26;67.72
58072;BME280;60383;46.626;18.866;2022-09-13T03:06:32;100299.78;;;13.23;67.93
58072;BME280;60383;46.626;18.866;2022-09-13T03:09:03;100301.00;;;13.21;68.25
58072;BME280;60383;46.626;18.866;2022-09-13T03:12:00;100300.66;;;13.16;68.46
58072;BME280;60383;46.626;18.866;2022-09-13T03:14:48;100297.91;;;13.16;67.94
58072;BME280;60383;46.626;18.866;2022-09-13T03:20:09;100301.69;;;13.15;68.55
58072;BME280;60383;46.626;18.866;2022-09-13T03:31:32;100297.09;;;12.99;68.07
58072;BME280;60383;46.626;18.866;2022-09-13T03:33:56;100295.78;;;12.78;68.93
58072;BME280;60383;46.626;18.866;2022-09-13T03:36:45;100295.63;;;12.80;68.79
58072;BME280;60383;46.626;18.866;2022-09-13T03:42:02;100289.75;;;12.91;68.53
58072;BME280;60383;46.626;18.866;2022-09-13T03:44:31;100295.94;;;12.93;68.39
58072;BME280;60383;46.626;18.866;2022-09-13T03:47:00;100295.75;;;12.94;67.98
58072;BME280;60383;46.626;18.866;2022-09-13T03:49:27;100301.06;;;12.88;68.17
58072;BME280;60383;46.626;18.866;2022-09-13T03:51:54;100297.47;;;12.96;67.78
58072;BME280;60383;46.626;18.866;2022-09-13T03:54:23;100300.69;;;13.07;67.42
58072;BME280;60383;46.626;18.866;2022-09-13T03:57:06;100296.22;;;13.06;67.36
58072;BME280;60383;46.626;18.866;2022-09-13T03:59:33;100296.22;;;13.06;66.98
58072;BME280;60383;46.626;18.866;2022-09-13T04:02:01;100295.88;;;13.01;68.18
58072;BME280;60383;46.626;18.866;2022-09-13T04:04:26;100286.50;;;12.87;68.06
58072;BME280;60383;46.626;18.866;2022-09-13T04:06:51;100287.38;;;12.80;68.50
58072;BME280;60383;46.626;18.866;2022-09-13T04:09:17;100290.81;;;12.73;68.92
58072;BME280;60383;46.626;18.866;2022-09-13T04:11:43;100293.59;;;12.65;69.19
58072;BME280;60383;46.626;18.866;2022-09-13T04:14:08;100286.88;;;12.76;68.89
58072;BME280;60383;46.626;18.866;2022-09-13T04:16:33;100285.31;;;12.73;69.63
58072;BME280;60383;46.626;18.866;2022-09-13T04:18:59;100290.28;;;12.78;69.85
58072;BME280;60383;46.626;18.866;2022-09-13T04:21:24;100283.56;;;12.81;69.72
58072;BME280;60383;46.626;18.866;2022-09-13T04:23:50;100277.63;;;12.69;69.08
58072;BME280;60383;46.626;18.866;2022-09-13T04:26:15;100276.59;;;12.70;68.85
58072;BME280;60383;46.626;18.866;2022-09-13T04:28:41;100283.44;;;12.74;69.53
58072;BME280;60383;46.626;18.866;2022-09-13T04:31:08;100284.63;;;12.80;69.32
58072;BME280;60383;46.626;18.866;2022-09-13T04:33:34;100287.81;;;13.00;68.84
58072;BME280;60383;46.626;18.866;2022-09-13T04:36:00;100286.63;;;12.94;68.70
58072;BME280;60383;46.626;18.866;2022-09-13T04:38:26;100294.19;;;13.00;67.89
58072;BME280;60383;46.626;18.866;2022-09-13T04:40:53;100290.44;;;12.85;67.99
58072;BME280;60383;46.626;18.866;2022-09-13T04:43:19;100291.81;;;12.81;67.53
58072;BME280;60383;46.626;18.866;2022-09-13T04:45:44;100295.75;;;12.86;67.79
58072;BME280;60383;46.626;18.866;2022-09-13T04:48:10;100298.28;;;13.04;67.04
58072;BME280;60383;46.626;18.866;2022-09-13T04:50:36;100301.03;;;13.13;67.08
58072;BME280;60383;46.626;18.866;2022-09-13T04:53:01;100304.63;;;13.05;67.48
58072;BME280;60383;46.626;18.866;2022-09-13T04:55:27;100297.06;;;13.15;67.13
58072;BME280;60383;46.626;18.866;2022-09-13T04:57:53;100304.03;;;13.34;67.43
58072;BME280;60383;46.626;18.866;2022-09-13T05:00:20;100299.16;;;13.53;67.02
58072;BME280;60383;46.626;18.866;2022-09-13T05:02:45;100297.84;;;13.72;66.54
58072;BME280;60383;46.626;18.866;2022-09-13T05:05:11;100292.59;;;13.85;65.37
58072;BME280;60383;46.626;18.866;2022-09-13T05:07:36;100294.91;;;13.97;65.33
58072;BME280;60383;46.626;18.866;2022-09-13T05:10:01;100303.63;;;14.47;64.50
58072;BME280;60383;46.626;18.866;2022-09-13T05:12:27;100300.06;;;15.14;64.20
58072;BME280;60383;46.626;18.866;2022-09-13T05:14:52;100288.66;;;15.69;60.92
58072;BME280;60383;46.626;18.866;2022-09-13T05:17:18;100296.59;;;15.94;59.39
58072;BME280;60383;46.626;18.866;2022-09-13T05:19:43;100293.31;;;16.05;58.18
58072;BME280;60383;46.626;18.866;2022-09-13T05:22:08;100300.47;;;16.00;58.69
58072;BME280;60383;46.626;18.866;2022-09-13T05:24:34;100298.97;;;15.45;60.04
58072;BME280;60383;46.626;18.866;2022-09-13T05:26:59;100306.22;;;15.83;59.41
58072;BME280;60383;46.626;18.866;2022-09-13T05:29:25;100306.91;;;15.33;60.05
58072;BME280;60383;46.626;18.866;2022-09-13T05:31:50;100305.94;;;15.41;60.42
58072;BME280;60383;46.626;18.866;2022-09-13T05:34:16;100301.66;;;15.39;60.93
58072;BME280;60383;46.626;18.866;2022-09-13T05:36:45;100301.38;;;15.04;62.32
58072;BME280;60383;46.626;18.866;2022-09-13T05:39:14;100303.78;;;15.07;62.69
58072;BME280;60383;46.626;18.866;2022-09-13T05:41:42;100303.56;;;15.23;62.36
58072;BME280;60383;46.626;18.866;2022-09-13T05:44:08;100302.41;;;15.47;60.82
58072;BME280;60383;46.626;18.866;2022-09-13T05:46:33;100307.53;;;15.51;61.00
58072;BME280;60383;46.626;18.866;2022-09-13T05:48:59;100307.84;;;15.11;62.07
58072;BME280;60383;46.626;18.866;2022-09-13T05:51:25;100312.41;;;15.33;61.89
58072;BME280;60383;46.626;18.866;2022-09-13T05:53:52;100313.22;;;15.49;61.50
58072;BME280;60383;46.626;18.866;2022-09-13T05:56:23;100311.28;;;15.13;62.24
58072;BME280;60383;46.626;18.866;2022-09-13T05:58:50;100316.50;;;15.08;62.96
58072;BME280;60383;46.626;18.866;2022-09-13T06:01:18;100316.38;;;15.31;62.54
58072;BME280;60383;46.626;18.866;2022-09-13T06:03:50;100318.31;;;15.30;62.68
58072;BME280;60383;46.626;18.866;2022-09-13T06:06:17;100314.31;;;15.33;62.35
58072;BME280;60383;46.626;18.866;2022-09-13T06:08:43;100314.56;;;15.38;61.77
58072;BME280;60383;46.626;18.866;2022-09-13T06:11:10;100323.63;;;15.47;61.01
58072;BME280;60383;46.626;18.866;2022-09-13T06:13:37;100317.25;;;15.31;61.50
58072;BME280;60383;46.626;18.866;2022-09-13T06:16:05;100334.94;;;15.22;61.31
58072;BME280;60383;46.626;18.866;2022-09-13T06:18:32;100330.78;;;15.26;61.47
58072;BME280;60383;46.626;18.866;2022-09-13T06:21:02;100319.72;;;15.41;61.19
58072;BME280;60383;46.626;18.866;2022-09-13T06:23:28;100326.97;;;15.12;62.57
58072;BME280;60383;46.626;18.866;2022-09-13T06:28:25;100318.28;;;15.45;62.04
58072;BME280;60383;46.626;18.866;2022-09-13T06:30:50;100323.84;;;15.82;61.56
58072;BME280;60383;46.626;18.866;2022-09-13T06:33:16;100320.53;;;16.08;60.98
58072;BME280;60383;46.626;18.866;2022-09-13T06:35:41;100313.47;;;15.84;60.35
58072;BME280;60383;46.626;18.866;2022-09-13T06:38:06;100321.19;;;15.74;61.68
58072;BME280;60383;46.626;18.866;2022-09-13T06:40:32;100315.88;;;15.87;62.19
58072;BME280;60383;46.626;18.866;2022-09-13T06:42:57;100317.44;;;15.96;61.60
58072;BME280;60383;46.626;18.866;2022-09-13T06:45:22;100313.25;;;16.01;61.48
58072;BME280;60383;46.626;18.866;2022-09-13T06:47:48;100314.63;;;16.11;61.55
58072;BME280;60383;46.626;18.866;2022-09-13T06:50:13;100320.94;;;16.27;60.60
58072;BME280;60383;46.626;18.866;2022-09-13T06:52:39;100324.94;;;16.46;60.26
58072;BME280;60383;46.626;18.866;2022-09-13T06:55:05;100316.66;;;16.46;59.63
58072;BME280;60383;46.626;18.866;2022-09-13T06:57:30;100325.06;;;16.59;58.59
58072;BME280;60383;46.626;18.866;2022-09-13T06:59:55;100319.34;;;16.61;58.32
58072;BME280;60383;46.626;18.866;2022-09-13T07:02:21;100321.44;;;16.59;58.75
58072;BME280;60383;46.626;18.866;2022-09-13T07:04:46;100333.47;;;16.73;58.42
58072;BME280;60383;46.626;18.866;2022-09-13T07:07:12;100330.84;;;17.21;56.72
58072;BME280;60383;46.626;18.866;2022-09-13T07:09:37;100328.44;;;17.05;56.39
58072;BME280;60383;46.626;18.866;2022-09-13T07:12:04;100332.72;;;16.57;59.09
58072;BME280;60383;46.626;18.866;2022-09-13T07:14:29;100336.53;;;16.85;58.07
58072;BME280;60383;46.626;18.866;2022-09-13T07:16:55;100332.09;;;17.12;56.30
58072;BME280;60383;46.626;18.866;2022-09-13T07:19:25;100333.16;;;17.11;54.89
58072;BME280;60383;46.626;18.866;2022-09-13T07:21:51;100324.88;;;17.60;54.26
58072;BME280;60383;46.626;18.866;2022-09-13T07:24:17;100324.50;;;17.28;53.87
58072;BME280;60383;46.626;18.866;2022-09-13T07:26:43;100328.47;;;18.09;51.26
58072;BME280;60383;46.626;18.866;2022-09-13T07:29:13;100331.75;;;18.46;49.84
58072;BME280;60383;46.626;18.866;2022-09-13T07:31:42;100327.06;;;18.66;49.38
58072;BME280;60383;46.626;18.866;2022-09-13T07:34:16;100332.19;;;18.70;49.72
58072;BME280;60383;46.626;18.866;2022-09-13T07:36:42;100334.91;;;18.29;50.39
58072;BME280;60383;46.626;18.866;2022-09-13T07:39:09;100334.25;;;18.27;49.78
58072;BME280;60383;46.626;18.866;2022-09-13T07:41:35;100328.50;;;18.22;50.08
58072;BME280;60383;46.626;18.866;2022-09-13T07:44:02;100331.88;;;17.97;50.28
58072;BME280;60383;46.626;18.866;2022-09-13T07:46:30;100336.19;;;18.27;48.34
58072;BME280;60383;46.626;18.866;2022-09-13T07:48:57;100336.84;;;18.29;50.54
58072;BME280;60383;46.626;18.866;2022-09-13T07:51:25;100328.09;;;18.32;50.46
58072;BME280;60383;46.626;18.866;2022-09-13T07:53:54;100330.69;;;18.40;49.24
58072;BME280;60383;46.626;18.866;2022-09-13T07:56:23;100328.13;;;18.65;49.88
58072;BME280;60383;46.626;18.866;2022-09-13T07:58:50;100324.72;;;18.77;49.87
58072;BME280;60383;46.626;18.866;2022-09-13T08:01:18;100330.91;;;18.39;49.36
58072;BME280;60383;46.626;18.866;2022-09-13T08:03:53;100328.97;;;18.46;49.57
58072;BME280;60383;46.626;18.866;2022-09-13T08:06:20;100317.00;;;19.19;48.34
58072;BME280;60383;46.626;18.866;2022-09-13T08:08:45;100316.16;;;19.05;48.29
58072;BME280;60383;46.626;18.866;2022-09-13T08:11:16;100310.59;;;19.77;47.79
58072;BME280;60383;46.626;18.866;2022-09-13T08:13:44;100321.34;;;20.13;46.68
58072;BME280;60383;46.626;18.866;2022-09-13T08:16:10;100320.13;;;19.95;45.05
58072;BME280;60383;46.626;18.866;2022-09-13T08:18:36;100318.16;;;19.57;46.51
58072;BME280;60383;46.626;18.866;2022-09-13T08:21:01;100317.41;;;19.82;46.17
58072;BME280;60383;46.626;18.866;2022-09-13T08:23:27;100319.88;;;19.58;47.21
58072;BME280;60383;46.626;18.866;2022-09-13T08:25:53;100330.69;;;19.79;47.09
58072;BME280;60383;46.626;18.866;2022-09-13T08:28:20;100319.72;;;20.30;46.82
58072;BME280;60383;46.626;18.866;2022-09-13T08:30:47;100320.19;;;20.27;45.35
58072;BME280;60383;46.626;18.866;2022-09-13T08:33:13;100324.28;;;20.18;45.48
58072;BME280;60383;46.626;18.866;2022-09-13T08:35:39;100320.94;;;20.09;45.54
58072;BME280;60383;46.626;18.866;2022-09-13T08:38:05;100318.34;;;19.69;46.11
58072;BME280;60383;46.626;18.866;2022-09-13T08:40:37;100318.78;;;20.11;44.94
58072;BME280;60383;46.626;18.866;2022-09-13T08:45:38;100321.66;;;20.30;41.85
58072;BME280;60383;46.626;18.866;2022-09-13T08:48:11;100321.16;;;20.39;42.71
58072;BME280;60383;46.626;18.866;2022-09-13T08:50:39;100322.41;;;20.43;42.91
58072;BME280;60383;46.626;18.866;2022-09-13T08:56:12;100314.78;;;20.00;42.64
58072;BME280;60383;46.626;18.866;2022-09-13T09:04:16;100320.28;;;20.71;41.28
58072;BME280;60383;46.626;18.866;2022-09-13T09:06:47;100313.22;;;20.68;41.54
58072;BME280;60383;46.626;18.866;2022-09-13T09:09:18;100318.91;;;20.55;41.63
58072;BME280;60383;46.626;18.866;2022-09-13T09:12:05;100318.28;;;20.53;42.02
58072;BME280;60383;46.626;18.866;2022-09-13T09:14:40;100323.09;;;20.64;41.79
58072;BME280;60383;46.626;18.866;2022-09-13T09:17:19;100317.75;;;20.63;42.28
58072;BME280;60383;46.626;18.866;2022-09-13T09:20:23;100314.13;;;20.62;41.21
58072;BME280;60383;46.626;18.866;2022-09-13T09:22:51;100321.09;;;20.71;41.01
58072;BME280;60383;46.626;18.866;2022-09-13T09:25:20;100313.16;;;21.00;40.51
58072;BME280;60383;46.626;18.866;2022-09-13T09:27:47;100315.66;;;21.09;40.25
58072;BME280;60383;46.626;18.866;2022-09-13T09:30:13;100304.69;;;20.63;39.48
58072;BME280;60383;46.626;18.866;2022-09-13T09:40:36;100295.53;;;22.11;37.02
58072;BME280;60383;46.626;18.866;2022-09-13T09:43:16;100291.34;;;21.90;37.15
58072;BME280;60383;46.626;18.866;2022-09-13T09:45:44;100286.38;;;22.23;35.61
58072;BME280;60383;46.626;18.866;2022-09-13T09:48:14;100289.41;;;22.33;36.16
58072;BME280;60383;46.626;18.866;2022-09-13T09:50:50;100285.97;;;21.39;38.07
58072;BME280;60383;46.626;18.866;2022-09-13T09:53:34;100279.72;;;21.93;37.89
58072;BME280;60383;46.626;18.866;2022-09-13T09:56:22;100271.53;;;22.64;36.47
58072;BME280;60383;46.626;18.866;2022-09-13T09:58:49;100267.97;;;22.33;37.93
58072;BME280;60383;46.626;18.866;2022-09-13T10:01:22;100266.00;;;22.88;36.21
58072;BME280;60383;46.626;18.866;2022-09-13T10:04:35;100263.31;;;23.05;35.50
58072;BME280;60383;46.626;18.866;2022-09-13T10:06:38;100258.19;;;23.02;34.41
58072;BME280;60383;46.626;18.866;2022-09-13T10:09:16;100249.50;;;23.51;34.24
58072;BME280;60383;46.626;18.866;2022-09-13T10:14:36;100254.06;;;23.05;36.34
58072;BME280;60383;46.626;18.866;2022-09-13T10:17:12;100250.44;;;22.92;36.27
58072;BME280;60383;46.626;18.866;2022-09-13T10:19:39;100252.88;;;22.89;36.52
58072;BME280;60383;46.626;18.866;2022-09-13T10:22:10;100247.91;;;22.91;37.07
58072;BME280;60383;46.626;18.866;2022-09-13T10:24:37;100247.16;;;22.48;35.46
58072;BME280;60383;46.626;18.866;2022-09-13T10:27:03;100236.25;;;22.70;35.44
58072;BME280;60383;46.626;18.866;2022-09-13T10:29:30;100231.16;;;22.79;35.08
58072;BME280;60383;46.626;18.866;2022-09-13T10:31:56;100233.94;;;23.03;35.01
58072;BME280;60383;46.626;18.866;2022-09-13T10:34:31;100235.28;;;22.76;36.14
58072;BME280;60383;46.626;18.866;2022-09-13T10:37:13;100233.22;;;22.84;36.18
58072;BME280;60383;46.626;18.866;2022-09-13T10:42:56;100227.97;;;22.63;36.44
58072;BME280;60383;46.626;18.866;2022-09-13T10:45:24;100237.06;;;23.18;34.90
58072;BME280;60383;46.626;18.866;2022-09-13T10:47:53;100230.00;;;23.68;33.89
58072;BME280;60383;46.626;18.866;2022-09-13T10:50:25;100235.97;;;23.89;33.28
58072;BME280;60383;46.626;18.866;2022-09-13T10:53:01;100228.53;;;23.66;33.57
58072;BME280;60383;46.626;18.866;2022-09-13T10:55:38;100234.19;;;23.54;33.35
58072;BME280;60383;46.626;18.866;2022-09-13T10:58:12;100229.13;;;23.39;33.28
58072;BME280;60383;46.626;18.866;2022-09-13T11:01:15;100230.75;;;23.23;33.61
58072;BME280;60383;46.626;18.866;2022-09-13T11:11:31;100220.81;;;22.79;33.28
58072;BME280;60383;46.626;18.866;2022-09-13T11:24:29;100195.31;;;23.52;30.23
58072;BME280;60383;46.626;18.866;2022-09-13T11:46:23;100173.81;;;23.53;32.65
58072;BME280;60383;46.626;18.866;2022-09-13T11:57:13;100171.78;;;24.62;30.68
58072;BME280;60383;46.626;18.866;2022-09-13T11:59:48;100178.91;;;24.36;31.16
58072;BME280;60383;46.626;18.866;2022-09-13T12:10:45;100166.44;;;24.61;31.32
58072;BME280;60383;46.626;18.866;2022-09-13T12:13:20;100164.22;;;25.02;30.07
58072;BME280;60383;46.626;18.866;2022-09-13T12:15:50;100161.00;;;24.93;32.38
58072;BME280;60383;46.626;18.866;2022-09-13T12:18:33;100158.38;;;25.03;31.52
58072;BME280;60383;46.626;18.866;2022-09-13T12:21:13;100156.19;;;25.33;30.73
58072;BME280;60383;46.626;18.866;2022-09-13T12:29:18;100143.06;;;24.89;31.74
58072;BME280;60383;46.626;18.866;2022-09-13T12:31:46;100139.03;;;25.02;31.37
58072;BME280;60383;46.626;18.866;2022-09-13T12:34:22;100141.69;;;24.92;30.85
58072;BME280;60383;46.626;18.866;2022-09-13T12:39:30;100135.56;;;25.17;31.00
58072;BME280;60383;46.626;18.866;2022-09-13T12:50:38;100126.78;;;25.08;31.51
58072;BME280;60383;46.626;18.866;2022-09-13T12:53:20;100117.09;;;25.21;31.93
58072;BME280;60383;46.626;18.866;2022-09-13T13:01:29;100106.06;;;24.87;33.91
58072;BME280;60383;46.626;18.866;2022-09-13T13:04:00;100112.50;;;24.87;34.03
58072;BME280;60383;46.626;18.866;2022-09-13T13:06:51;100115.50;;;24.24;34.48
58072;BME280;60383;46.626;18.866;2022-09-13T13:12:31;100108.41;;;24.73;33.21
58072;BME280;60383;46.626;18.866;2022-09-13T13:14:59;100114.34;;;24.77;33.83
58072;BME280;60383;46.626;18.866;2022-09-13T13:17:38;100107.88;;;24.98;32.12
58072;BME280;60383;46.626;18.866;2022-09-13T13:36:28;100095.94;;;23.90;34.34
58072;BME280;60383;46.626;18.866;2022-09-13T13:38:56;100102.47;;;23.96;35.28
58072;BME280;60383;46.626;18.866;2022-09-13T13:44:01;100100.88;;;24.00;35.34
58072;BME280;60383;46.626;18.866;2022-09-13T13:57:30;100083.13;;;23.77;34.46
58072;BME280;60383;46.626;18.866;2022-09-13T14:00:17;100089.16;;;24.03;34.52
58072;BME280;60383;46.626;18.866;2022-09-13T14:05:41;100077.53;;;23.60;37.15
58072;BME280;60383;46.626;18.866;2022-09-13T14:21:29;100064.09;;;24.08;35.01
58072;BME280;60383;46.626;18.866;2022-09-13T14:24:08;100061.28;;;23.91;34.07
58072;BME280;60383;46.626;18.866;2022-09-13T14:26:34;100063.22;;;23.74;34.63
58072;BME280;60383;46.626;18.866;2022-09-13T14:29:00;100055.25;;;23.66;34.86
58072;BME280;60383;46.626;18.866;2022-09-13T14:31:25;100048.75;;;23.60;35.42
58072;BME280;60383;46.626;18.866;2022-09-13T14:33:51;100053.78;;;23.29;36.17
58072;BME280;60383;46.626;18.866;2022-09-13T14:36:19;100060.78;;;23.32;37.61
58072;BME280;60383;46.626;18.866;2022-09-13T14:38:51;100059.38;;;23.46;38.34
58072;BME280;60383;46.626;18.866;2022-09-13T14:41:19;100059.53;;;23.22;38.51
58072;BME280;60383;46.626;18.866;2022-09-13T14:43:46;100050.38;;;22.98;38.12
58072;BME280;60383;46.626;18.866;2022-09-13T14:48:53;100055.44;;;23.01;37.47
58072;BME280;60383;46.626;18.866;2022-09-13T14:54:00;100056.25;;;23.42;37.73
58072;BME280;60383;46.626;18.866;2022-09-13T14:56:40;100051.78;;;23.92;35.89
58072;BME280;60383;46.626;18.866;2022-09-13T14:59:15;100051.59;;;23.48;36.46
58072;BME280;60383;46.626;18.866;2022-09-13T15:01:43;100045.81;;;23.38;37.43
58072;BME280;60383;46.626;18.866;2022-09-13T15:04:09;100046.00;;;23.48;37.99
58072;BME280;60383;46.626;18.866;2022-09-13T15:06:40;100046.91;;;23.20;37.47
58072;BME280;60383;46.626;18.866;2022-09-13T15:11:58;100044.34;;;22.89;37.68
58072;BME280;60383;46.626;18.866;2022-09-13T15:14:33;100037.00;;;23.00;37.46
58072;BME280;60383;46.626;18.866;2022-09-13T15:19:50;100044.28;;;23.01;37.68
58072;BME280;60383;46.626;18.866;2022-09-13T15:22:30;100040.00;;;22.70;37.69
58072;BME280;60383;46.626;18.866;2022-09-13T15:24:58;100033.69;;;22.74;37.94
58072;BME280;60383;46.626;18.866;2022-09-13T15:27:45;100031.00;;;22.79;38.81
58072;BME280;60383;46.626;18.866;2022-09-13T15:30:26;100031.22;;;22.90;38.81
58072;BME280;60383;46.626;18.866;2022-09-13T15:35:39;100041.00;;;22.63;38.24
58072;BME280;60383;46.626;18.866;2022-09-13T15:40:42;100037.91;;;22.36;37.32
58072;BME280;60383;46.626;18.866;2022-09-13T15:43:08;100029.88;;;22.52;37.14
58072;BME280;60383;46.626;18.866;2022-09-13T15:45:34;100024.44;;;22.57;37.63
58072;BME280;60383;46.626;18.866;2022-09-13T15:47:59;100030.13;;;22.50;37.54
58072;BME280;60383;46.626;18.866;2022-09-13T15:50:27;100023.09;;;22.59;37.41
58072;BME280;60383;46.626;18.866;2022-09-13T15:52:56;100023.94;;;22.36;37.23
58072;BME280;60383;46.626;18.866;2022-09-13T15:55:22;100011.22;;;22.40;37.85
58072;BME280;60383;46.626;18.866;2022-09-13T15:57:48;100013.03;;;22.34;38.18
58072;BME280;60383;46.626;18.866;2022-09-13T16:00:22;100016.91;;;22.45;38.86
58072;BME280;60383;46.626;18.866;2022-09-13T16:02:48;100008.06;;;22.37;38.47
58072;BME280;60383;46.626;18.866;2022-09-13T16:05:14;100003.97;;;22.27;38.18
58072;BME280;60383;46.626;18.866;2022-09-13T16:07:40;100008.56;;;22.33;38.62
58072;BME280;60383;46.626;18.866;2022-09-13T16:10:11;100011.47;;;22.39;39.27
58072;BME280;60383;46.626;18.866;2022-09-13T16:12:37;99994.19;;;22.65;38.45
58072;BME280;60383;46.626;18.866;2022-09-13T16:15:03;99999.69;;;22.37;38.66
58072;BME280;60383;46.626;18.866;2022-09-13T16:17:29;99994.91;;;22.08;39.72
58072;BME280;60383;46.626;18.866;2022-09-13T16:19:54;99998.16;;;22.17;39.29
58072;BME280;60383;46.626;18.866;2022-09-13T16:22:20;99995.09;;;22.18;39.68
58072;BME280;60383;46.626;18.866;2022-09-13T16:24:46;99989.69;;;22.12;40.33
58072;BME280;60383;46.626;18.866;2022-09-13T16:27:13;99995.16;;;21.83;41.77
58072;BME280;60383;46.626;18.866;2022-09-13T16:29:39;99999.63;;;21.84;42.06
58072;BME280;60383;46.626;18.866;2022-09-13T16:32:05;99994.91;;;21.84;42.12
58072;BME280;60383;46.626;18.866;2022-09-13T16:34:31;99990.66;;;21.70;43.01
58072;BME280;60383;46.626;18.866;2022-09-13T16:36:56;99987.16;;;21.75;42.59
58072;BME280;60383;46.626;18.866;2022-09-13T16:39:22;99984.63;;;21.73;43.68